Terminal Aerodrome Forecast
Issued by NWS

Current Version | Previous Version | Text Only | Print | Product List | Glossary On
Versions: 1 2 3 4 5 6 7 8 9 10 11 12 13 14 15 16 17 18 19 20 21 22 23 24 25 26 27 28 29 30 31 32 33 34 35 36 37 38 39 40 41 42 43 44 45 46 47 48 49 50
000
FTAK31 PANC 281722
TAFASN
TAF
PASN 281722Z 2818/2918 10020G28KT P6SM FEW009 SCT035 BKN120
     FM282000 10022G30KT P6SM FEW010 BKN025
     FM282300 11024G32KT 3SM -RA BR OVC007
     FM290200 13025G35KT 2SM RA BR OVC005
     FM290600 15020KT 4SM BR SCT005 OVC010=

USA.gov is the U.S. government's official web portal to all federal, state and local government web resources and services.